Time;durP1;ratioP1;P1;durP2;ratioP2;P2;SDS_P1;SDS_P2;PMS_P1;PMS_P2;Temp;Humidity;BMP_temperature;BMP_pressure;BME280_temperature;BME280_humidity;BME280_pressure;Samples;Min_cycle;Max_cycle;Signal;HPM_P1;HPM_P2
2020/12/07 00:02:02;;;;;;;23.77;15.23;;;9.00;95.10;;;;;;5068766;28;20685;-48
2020/12/07 00:04:30;;;;;;;23.93;17.80;;;9.00;95.00;;;;;;5068876;28;21202;-48
2020/12/07 00:06:56;;;;;;;31.80;24.07;;;8.90;94.90;;;;;;5068216;28;21184;-48
2020/12/07 00:09:23;;;;;;;27.33;21.83;;;8.90;95.10;;;;;;5068673;28;20715;-48
2020/12/07 00:11:50;;;;;;;27.60;21.67;;;8.90;95.10;;;;;;5068382;28;21067;-49
2020/12/07 00:14:17;;;;;;;20.70;16.30;;;8.90;95.10;;;;;;5071903;28;20664;-48
2020/12/07 00:16:45;;;;;;;26.63;20.90;;;9.00;95.00;;;;;;5065964;28;20653;-48
2020/12/07 00:19:12;;;;;;;21.67;17.33;;;8.90;94.80;;;;;;5068296;28;21057;-48
2020/12/07 00:21:42;;;;;;;18.67;15.10;;;8.80;94.60;;;;;;5069309;28;20793;-48
2020/12/07 00:24:09;;;;;;;19.00;14.97;;;8.70;94.40;;;;;;5069747;28;20624;-48
2020/12/07 00:26:35;;;;;;;22.07;16.77;;;8.60;94.70;;;;;;5068761;28;20632;-48
2020/12/07 00:29:02;;;;;;;19.50;16.00;;;8.60;94.90;;;;;;5068518;28;20661;-48
2020/12/07 00:31:29;;;;;;;24.67;20.80;;;8.60;95.00;;;;;;5068299;28;20729;-47
2020/12/07 00:33:58;;;;;;;21.13;16.80;;;8.70;95.00;;;;;;5068226;28;20663;-48
2020/12/07 00:36:25;;;;;;;21.17;16.83;;;8.70;95.00;;;;;;5068537;28;20692;-47
2020/12/07 00:38:53;;;;;;;21.93;18.67;;;8.80;95.00;;;;;;5067852;28;20668;-48
2020/12/07 00:41:21;;;;;;;21.73;18.50;;;8.70;95.00;;;;;;5068725;28;20640;-48
2020/12/07 00:43:47;;;;;;;26.27;18.13;;;8.70;95.10;;;;;;5068481;28;20753;-47
2020/12/07 00:46:14;;;;;;;21.90;18.30;;;8.70;95.10;;;;;;5070036;28;20636;-47
2020/12/07 00:48:41;;;;;;;25.27;19.80;;;8.70;95.00;;;;;;5073046;28;20758;-46
2020/12/07 00:51:08;;;;;;;21.40;17.97;;;8.80;95.50;;;;;;5072819;28;21196;-47
2020/12/07 00:53:35;;;;;;;22.83;20.40;;;8.80;95.40;;;;;;5071876;28;20947;-47
2020/12/07 00:56:03;;;;;;;26.10;19.50;;;8.80;95.00;;;;;;5071887;28;20715;-47
2020/12/07 00:58:29;;;;;;;21.93;18.73;;;8.90;95.10;;;;;;5072264;28;21249;-46
2020/12/07 01:00:56;;;;;;;18.67;15.90;;;9.00;95.00;;;;;;5071814;28;21027;-47
2020/12/07 01:03:23;;;;;;;20.43;17.47;;;9.00;94.70;;;;;;5066702;28;20665;-47
2020/12/07 01:05:50;;;;;;;24.07;17.97;;;8.90;94.80;;;;;;5070566;28;20670;-46
2020/12/07 01:08:16;;;;;;;20.80;17.03;;;8.80;94.60;;;;;;5071407;28;20664;-47
2020/12/07 01:10:43;;;;;;;20.70;16.97;;;8.80;94.70;;;;;;5054243;28;21251;-46
2020/12/07 01:13:11;;;;;;;16.07;13.33;;;8.90;94.70;;;;;;5066909;28;21173;-50
2020/12/07 01:15:38;;;;;;;25.37;16.90;;;8.80;94.60;;;;;;5071430;28;20652;-47
2020/12/07 01:18:04;;;;;;;20.20;15.90;;;8.80;94.50;;;;;;5071216;28;21418;-47
2020/12/07 01:20:33;;;;;;;18.20;15.70;;;8.80;94.50;;;;;;5071645;28;20709;-48
2020/12/07 01:23:00;;;;;;;20.23;16.77;;;8.70;94.60;;;;;;5071559;28;20689;-49
2020/12/07 01:25:26;;;;;;;19.97;15.93;;;8.60;94.70;;;;;;5071510;28;20723;-49
2020/12/07 01:27:53;;;;;;;18.77;15.83;;;8.60;94.90;;;;;;5071005;28;21043;-49
2020/12/07 01:30:21;;;;;;;18.20;16.27;;;8.60;94.90;;;;;;5071182;28;20628;-49
2020/12/07 01:32:48;;;;;;;20.30;17.80;;;8.60;95.00;;;;;;5071418;28;20621;-50
2020/12/07 01:35:15;;;;;;;19.90;17.70;;;8.60;95.00;;;;;;5071393;28;21197;-49
2020/12/07 01:37:41;;;;;;;19.90;16.70;;;8.50;95.00;;;;;;5071184;28;20693;-49
2020/12/07 01:40:08;;;;;;;20.47;18.27;;;8.60;95.10;;;;;;5071695;28;20629;-48
2020/12/07 01:42:35;;;;;;;20.40;16.63;;;8.60;95.10;;;;;;5070967;28;20707;-49
2020/12/07 01:45:02;;;;;;;24.13;18.00;;;8.60;95.10;;;;;;5071003;28;21054;-49
2020/12/07 01:47:29;;;;;;;24.13;18.80;;;8.60;95.00;;;;;;5072038;28;20681;-49
2020/12/07 01:49:56;;;;;;;18.17;16.27;;;8.60;95.00;;;;;;5070884;28;21250;-51
2020/12/07 01:52:23;;;;;;;20.40;15.77;;;8.60;95.10;;;;;;5070743;28;20625;-51
2020/12/07 01:54:50;;;;;;;25.50;17.77;;;8.70;95.10;;;;;;5071216;28;20640;-50
2020/12/07 01:57:17;;;;;;;21.93;19.57;;;8.70;95.00;;;;;;5074380;28;20633;-50
2020/12/07 01:59:44;;;;;;;21.63;19.30;;;8.80;95.00;;;;;;5090832;28;21215;-50
2020/12/07 02:02:10;;;;;;;22.13;19.40;;;8.90;95.00;;;;;;5091015;28;20627;-51
2020/12/07 02:04:38;;;;;;;28.90;21.30;;;8.90;94.90;;;;;;5082643;28;20618;-51
2020/12/07 02:07:05;;;;;;;22.10;19.73;;;8.90;94.90;;;;;;5070538;28;20715;-51
2020/12/07 02:09:32;;;;;;;22.60;19.40;;;8.90;94.70;;;;;;5070716;28;20706;-51
2020/12/07 02:11:58;;;;;;;20.67;17.10;;;8.80;94.70;;;;;;5070670;28;20669;-50
2020/12/07 02:14:25;;;;;;;21.93;19.30;;;8.70;94.90;;;;;;5070353;28;20653;-50
2020/12/07 02:16:52;;;;;;;26.40;19.87;;;8.70;95.20;;;;;;5074150;28;21370;-51
2020/12/07 02:19:19;;;;;;;27.77;19.27;;;8.60;95.30;;;;;;5070490;28;20695;-50
2020/12/07 02:21:46;;;;;;;29.57;21.23;;;8.50;95.50;;;;;;5070297;28;21162;-51
2020/12/07 02:24:13;;;;;;;28.90;21.57;;;8.50;95.70;;;;;;5070338;28;20751;-51
2020/12/07 02:26:40;;;;;;;26.40;21.87;;;8.40;95.80;;;;;;5070436;28;20670;-51
2020/12/07 02:29:07;;;;;;;31.20;24.30;;;8.40;96.00;;;;;;5052052;28;20664;-50
2020/12/07 02:31:33;;;;;;;28.60;23.97;;;8.40;96.10;;;;;;5070202;28;20641;-51
2020/12/07 02:34:00;;;;;;;31.27;21.47;;;8.60;96.10;;;;;;5070285;28;20659;-51
2020/12/07 02:36:27;;;;;;;30.70;23.10;;;8.70;95.90;;;;;;5069913;28;20700;-50
2020/12/07 02:38:54;;;;;;;29.43;24.73;;;8.70;95.60;;;;;;5070246;28;20651;-51
2020/12/07 02:41:21;;;;;;;26.57;20.57;;;8.80;95.50;;;;;;5070651;28;20660;-51
2020/12/07 02:43:48;;;;;;;29.63;22.70;;;8.80;95.10;;;;;;5069494;28;20735;-51
2020/12/07 02:46:15;;;;;;;33.60;22.23;;;8.80;95.10;;;;;;5070110;28;20702;-50
2020/12/07 02:48:42;;;;;;;24.90;18.13;;;8.80;95.10;;;;;;5070146;28;20707;-51
2020/12/07 02:51:08;;;;;;;25.80;19.30;;;8.80;95.30;;;;;;5070024;28;20648;-51
2020/12/07 02:53:35;;;;;;;25.70;20.70;;;8.80;94.90;;;;;;5069887;28;20653;-49
2020/12/07 02:56:04;;;;;;;26.97;21.60;;;8.90;94.90;;;;;;5069958;28;20664;-51
2020/12/07 02:58:30;;;;;;;24.90;20.07;;;8.90;94.80;;;;;;5068987;28;20668;-52
2020/12/07 03:00:57;;;;;;;24.30;18.50;;;9.00;94.70;;;;;;5069947;28;20682;-51
2020/12/07 03:03:24;;;;;;;29.70;22.57;;;9.00;94.60;;;;;;5069478;28;20648;-51
2020/12/07 03:05:51;;;;;;;31.43;20.87;;;9.00;94.60;;;;;;5069559;28;20616;-51
2020/12/07 03:08:18;;;;;;;30.43;21.70;;;9.00;94.60;;;;;;5068930;28;20665;-51
2020/12/07 03:10:44;;;;;;;24.30;19.70;;;9.00;94.50;;;;;;5069167;28;20625;-51
2020/12/07 03:13:12;;;;;;;30.63;21.90;;;8.90;94.40;;;;;;5069446;28;21018;-51
2020/12/07 03:15:39;;;;;;;29.37;23.70;;;8.80;94.60;;;;;;5069599;28;20656;-51
2020/12/07 03:18:06;;;;;;;28.87;21.57;;;8.80;94.60;;;;;;5069083;28;20660;-50
2020/12/07 03:20:33;;;;;;;29.30;23.23;;;8.80;95.00;;;;;;5069548;28;21172;-51
2020/12/07 03:22:59;;;;;;;29.03;22.30;;;8.80;95.00;;;;;;5069207;28;21190;-51
2020/12/07 03:25:26;;;;;;;26.30;21.17;;;8.80;94.70;;;;;;5063328;28;21177;-51
2020/12/07 03:27:53;;;;;;;29.27;22.70;;;8.90;94.70;;;;;;5051899;28;21063;-51
2020/12/07 03:30:20;;;;;;;28.03;23.40;;;8.90;94.60;;;;;;5053241;28;20758;-51
2020/12/07 03:32:47;;;;;;;29.10;23.20;;;8.90;94.50;;;;;;5069839;28;21198;-51
2020/12/07 03:35:14;;;;;;;30.57;23.83;;;8.90;94.40;;;;;;5069190;28;21137;-51
2020/12/07 03:37:41;;;;;;;27.50;20.17;;;8.90;94.40;;;;;;5068800;28;21009;-51
2020/12/07 03:40:07;;;;;;;26.63;21.20;;;9.00;94.20;;;;;;5069303;28;20639;-51
2020/12/07 03:42:34;;;;;;;29.77;19.50;;;8.90;94.00;;;;;;5069559;28;20654;-50
2020/12/07 03:45:01;;;;;;;28.73;19.03;;;8.90;94.00;;;;;;5069415;28;20702;-51
2020/12/07 03:47:29;;;;;;;25.53;19.43;;;8.80;94.10;;;;;;5068265;28;20629;-50
2020/12/07 03:49:55;;;;;;;24.60;19.60;;;8.80;94.20;;;;;;5061394;28;20644;-49
2020/12/07 03:52:22;;;;;;;22.67;18.03;;;8.60;94.10;;;;;;5047639;28;20703;-49
2020/12/07 03:54:49;;;;;;;26.43;20.83;;;8.50;94.20;;;;;;5067113;28;20628;-49
2020/12/07 03:57:16;;;;;;;26.40;19.00;;;8.60;94.50;;;;;;5069036;28;20660;-49
2020/12/07 03:59:42;;;;;;;27.50;19.23;;;8.60;94.40;;;;;;5067966;28;20656;-49
2020/12/07 04:02:09;;;;;;;25.50;18.73;;;8.60;94.40;;;;;;5068987;28;20685;-49
2020/12/07 04:04:42;;;;;;;23.97;17.57;;;8.60;94.30;;;;;;5068698;28;20709;-49
2020/12/07 04:07:09;;;;;;;26.80;19.60;;;8.60;94.70;;;;;;5069200;28;20621;-50
2020/12/07 04:09:36;;;;;;;23.77;17.50;;;8.60;94.30;;;;;;5068841;28;20676;-49
2020/12/07 04:12:03;;;;;;;26.77;19.80;;;8.70;94.20;;;;;;5068868;28;20628;-49
2020/12/07 04:14:29;;;;;;;24.47;18.80;;;8.70;94.50;;;;;;5068722;28;20633;-48
2020/12/07 04:16:56;;;;;;;24.37;19.50;;;8.60;94.10;;;;;;5068812;28;20685;-48
2020/12/07 04:19:23;;;;;;;25.63;20.83;;;8.70;94.20;;;;;;5069248;28;20751;-49
2020/12/07 04:21:51;;;;;;;22.60;18.00;;;8.60;94.20;;;;;;5069527;28;20636;-49
2020/12/07 04:24:17;;;;;;;22.53;19.97;;;8.60;94.50;;;;;;5071747;28;20625;-49
2020/12/07 04:26:44;;;;;;;23.03;18.73;;;8.60;94.30;;;;;;5072054;28;20624;-49
2020/12/07 04:29:11;;;;;;;25.23;19.83;;;8.50;94.20;;;;;;5054529;28;21063;-49
2020/12/07 04:31:38;;;;;;;23.60;17.43;;;8.50;94.30;;;;;;5072422;28;20967;-49
2020/12/07 04:34:04;;;;;;;22.47;18.43;;;8.50;94.40;;;;;;5072227;28;20648;-48
2020/12/07 04:36:31;;;;;;;21.20;18.63;;;8.50;94.80;;;;;;5071970;28;20737;-48
2020/12/07 04:38:59;;;;;;;23.47;18.47;;;8.40;94.50;;;;;;5071728;28;20672;-48
2020/12/07 04:41:25;;;;;;;27.80;20.77;;;8.40;94.50;;;;;;5072254;28;20659;-49
2020/12/07 04:43:52;;;;;;;24.90;18.50;;;8.40;94.60;;;;;;5071971;28;20625;-48
2020/12/07 04:46:19;;;;;;;22.77;18.57;;;8.40;94.50;;;;;;5072397;28;20753;-49
2020/12/07 04:48:46;;;;;;;21.33;17.10;;;8.40;94.50;;;;;;5071801;28;20652;-48
2020/12/07 04:51:13;;;;;;;23.80;19.17;;;8.40;94.60;;;;;;5071987;28;20655;-49
2020/12/07 04:53:40;;;;;;;24.33;17.63;;;8.50;94.60;;;;;;5071206;28;20689;-49
2020/12/07 04:56:08;;;;;;;21.70;17.03;;;8.40;94.40;;;;;;5071581;28;20799;-49
2020/12/07 04:58:35;;;;;;;23.97;18.53;;;8.30;94.30;;;;;;5071893;28;20655;-48
2020/12/07 05:01:01;;;;;;;24.23;19.57;;;8.20;94.60;;;;;;5071886;28;20668;-48
2020/12/07 05:03:28;;;;;;;22.40;18.17;;;8.20;94.80;;;;;;5078651;28;20675;-48
2020/12/07 05:05:56;;;;;;;23.60;18.13;;;8.10;95.00;;;;;;5076802;28;20701;-48
2020/12/07 05:08:23;;;;;;;21.70;18.40;;;8.10;95.10;;;;;;5071723;28;20648;-48
2020/12/07 05:10:50;;;;;;;25.93;18.77;;;8.10;95.10;;;;;;5071835;28;20623;-48
2020/12/07 05:13:24;;;;;;;21.13;16.73;;;8.10;95.30;;;;;;5072365;28;20780;-49
2020/12/07 05:15:51;;;;;;;23.23;17.73;;;8.10;95.30;;;;;;5072418;28;20668;-48
2020/12/07 05:18:18;;;;;;;25.43;19.70;;;8.10;95.30;;;;;;5072026;28;20664;-48
2020/12/07 05:20:45;;;;;;;22.50;17.90;;;8.20;95.30;;;;;;5072370;28;20632;-49
2020/12/07 05:23:15;;;;;;;22.20;17.43;;;8.20;95.30;;;;;;5071035;28;20628;-50
2020/12/07 05:25:42;;;;;;;24.47;18.93;;;8.20;95.30;;;;;;5071595;28;21006;-50
2020/12/07 05:28:09;;;;;;;19.77;16.97;;;8.30;95.30;;;;;;5070792;28;20668;-49
2020/12/07 05:30:42;;;;;;;26.53;17.13;;;8.40;95.40;;;;;;5071052;28;21237;-51
2020/12/07 05:33:09;;;;;;;24.67;19.00;;;8.30;94.90;;;;;;5070936;28;20624;-49
2020/12/07 05:35:39;;;;;;;21.83;17.17;;;8.30;94.90;;;;;;5071113;28;20764;-50
2020/12/07 05:38:06;;;;;;;26.33;18.90;;;8.30;94.90;;;;;;5070791;28;20737;-50
2020/12/07 05:40:33;;;;;;;26.37;17.10;;;8.20;94.90;;;;;;5071775;28;20640;-50
2020/12/07 05:42:59;;;;;;;20.97;17.10;;;8.20;94.90;;;;;;5071625;28;20632;-50
2020/12/07 05:45:26;;;;;;;24.40;20.77;;;8.10;95.00;;;;;;5070911;28;20683;-50
2020/12/07 05:47:54;;;;;;;26.70;19.10;;;8.10;95.20;;;;;;5071489;28;20685;-51
2020/12/07 05:50:22;;;;;;;26.87;20.50;;;8.10;95.30;;;;;;5071044;28;20658;-50
2020/12/07 05:52:49;;;;;;;26.87;19.10;;;8.20;95.40;;;;;;5071507;28;20645;-50
2020/12/07 05:55:17;;;;;;;22.90;19.53;;;8.20;95.50;;;;;;5071609;28;20651;-49
2020/12/07 05:57:48;;;;;;;24.33;20.07;;;8.20;95.30;;;;;;5071025;28;20664;-50
2020/12/07 06:00:21;;;;;;;27.00;21.63;;;8.20;95.40;;;;;;5071502;28;20628;-51
2020/12/07 06:02:50;;;;;;;28.13;21.10;;;8.20;95.30;;;;;;5055256;28;20646;-49
2020/12/07 06:05:17;;;;;;;27.33;22.13;;;8.20;95.20;;;;;;5088447;28;20681;-49
2020/12/07 06:07:48;;;;;;;27.80;18.60;;;8.10;95.30;;;;;;5090803;28;20680;-48
2020/12/07 06:10:16;;;;;;;28.83;21.20;;;8.10;95.50;;;;;;5091915;28;21467;-51
2020/12/07 06:12:46;;;;;;;34.53;23.53;;;8.10;95.40;;;;;;5092411;28;20691;-50
2020/12/07 06:15:13;;;;;;;30.03;23.17;;;8.10;95.30;;;;;;5092543;28;20635;-50
2020/12/07 06:17:40;;;;;;;29.90;20.30;;;8.20;95.20;;;;;;5090800;28;20660;-49
2020/12/07 06:20:07;;;;;;;29.07;22.37;;;8.10;95.00;;;;;;5064086;28;20653;-47
2020/12/07 06:22:34;;;;;;;31.90;23.50;;;8.10;95.20;;;;;;5050957;28;20689;-48
2020/12/07 06:25:01;;;;;;;34.20;22.80;;;8.10;95.20;;;;;;5053853;28;20629;-48
2020/12/07 06:27:28;;;;;;;28.60;22.27;;;8.10;95.20;;;;;;5070425;28;20654;-48
2020/12/07 06:29:59;;;;;;;33.20;21.23;;;8.10;95.20;;;;;;5071010;28;20694;-49
2020/12/07 06:32:43;;;;;;;29.57;22.57;;;8.00;95.60;;;;;;5070106;28;21095;-47
2020/12/07 06:35:10;;;;;;;29.00;23.00;;;8.00;95.20;;;;;;5070020;28;21161;-47
2020/12/07 06:37:42;;;;;;;39.57;26.97;;;8.00;95.20;;;;;;5069728;28;20721;-49
2020/12/07 06:40:09;;;;;;;32.47;22.17;;;8.00;95.30;;;;;;5070073;28;20682;-49
2020/12/07 06:42:40;;;;;;;31.17;24.40;;;8.00;95.30;;;;;;5070537;28;20681;-49
2020/12/07 06:45:08;;;;;;;32.47;24.70;;;7.80;95.30;;;;;;5069725;28;20678;-48
2020/12/07 06:47:36;;;;;;;34.87;25.57;;;7.80;95.40;;;;;;5069536;28;20616;-50
2020/12/07 06:50:11;;;;;;;30.33;22.80;;;7.90;95.60;;;;;;5069656;28;20657;-48
2020/12/07 06:52:41;;;;;;;29.67;23.00;;;7.90;95.50;;;;;;5068830;28;20640;-52
2020/12/07 06:55:09;;;;;;;27.50;19.37;;;7.90;95.50;;;;;;5069961;28;20674;-51
2020/12/07 06:57:39;;;;;;;28.80;23.40;;;8.00;95.40;;;;;;5060372;28;20660;-51
2020/12/07 07:00:07;;;;;;;26.83;21.83;;;7.90;95.10;;;;;;5059664;28;21014;-52
2020/12/07 07:02:34;;;;;;;31.63;22.27;;;7.90;95.20;;;;;;5058158;28;20681;-52
2020/12/07 07:05:01;;;;;;;29.57;19.67;;;7.90;95.20;;;;;;5061149;28;20631;-51
2020/12/07 07:07:29;;;;;;;24.97;19.37;;;8.00;95.20;;;;;;5051951;28;20712;-51
2020/12/07 07:09:58;;;;;;;27.07;22.40;;;7.90;95.00;;;;;;5068670;28;21206;-51
2020/12/07 07:12:25;;;;;;;23.43;19.43;;;7.90;95.20;;;;;;5060423;28;20682;-51
2020/12/07 07:14:56;;;;;;;25.90;17.20;;;8.00;95.30;;;;;;5058965;28;20632;-51
2020/12/07 07:17:24;;;;;;;28.30;21.13;;;7.90;94.90;;;;;;5069894;28;20688;-51
2020/12/07 07:19:50;;;;;;;28.47;21.67;;;7.90;95.00;;;;;;5069558;28;20652;-51
2020/12/07 07:22:17;;;;;;;25.57;18.00;;;8.00;95.00;;;;;;5071341;28;20666;-51
2020/12/07 07:24:53;;;;;;;27.73;21.47;;;8.00;94.90;;;;;;5068898;28;21169;-49
2020/12/07 07:30:07;;;;;;;27.03;21.30;;;8.00;94.80;;;;;;5051756;28;21218;-51
2020/12/07 07:32:34;;;;;;;25.23;20.10;;;7.90;95.10;;;;;;5070329;28;20624;-48
2020/12/07 07:35:00;;;;;;;24.63;18.90;;;7.90;94.80;;;;;;5069846;28;20628;-48
2020/12/07 07:37:27;;;;;;;31.07;23.43;;;7.90;95.00;;;;;;5069066;28;20654;-49
2020/12/07 07:40:06;;;;;;;25.93;19.07;;;8.10;95.30;;;;;;5068688;28;20705;-49
2020/12/07 07:42:37;;;;;;;25.00;18.00;;;8.20;94.90;;;;;;5070348;28;20624;-48
2020/12/07 07:45:04;;;;;;;26.37;22.83;;;8.50;95.00;;;;;;5069087;28;20633;-49
2020/12/07 07:47:33;;;;;;;24.20;19.00;;;8.60;94.30;;;;;;5068353;28;20685;-50
2020/12/07 07:50:33;;;;;;;26.23;18.70;;;8.60;93.70;;;;;;5068486;28;20963;-50
2020/12/07 08:16:17;;;;;;;22.53;16.07;;;8.10;94.40;;;;;;5010929;28;20607;-52
2020/12/07 08:18:45;;;;;;;23.63;17.10;;;8.10;94.50;;;;;;5060685;28;20833;-51
2020/12/07 08:21:14;;;;;;;25.70;17.70;;;8.10;94.60;;;;;;5073272;28;20628;-50
2020/12/07 08:23:43;;;;;;;25.63;17.73;;;8.10;94.70;;;;;;5072162;28;20633;-50
2020/12/07 08:26:18;;;;;;;21.60;17.47;;;8.20;94.70;;;;;;5072410;28;21120;-51
2020/12/07 08:28:48;;;;;;;21.90;17.33;;;8.30;94.80;;;;;;5071965;28;21216;-50
2020/12/07 08:31:16;;;;;;;28.27;17.60;;;8.30;94.70;;;;;;5071807;28;21134;-50
2020/12/07 08:33:55;;;;;;;26.60;16.57;;;8.40;94.40;;;;;;5072068;28;20686;-50
2020/12/07 08:36:22;;;;;;;20.27;13.23;;;8.40;94.50;;;;;;5071847;28;20636;-51
2020/12/07 08:38:50;;;;;;;21.30;15.53;;;8.30;94.00;;;;;;5071780;28;20671;-49
2020/12/07 08:41:17;;;;;;;21.50;17.20;;;8.30;94.20;;;;;;5071952;28;20681;-51
2020/12/07 08:43:45;;;;;;;27.87;17.70;;;8.30;94.80;;;;;;5072121;28;20919;-51
2020/12/07 08:46:13;;;;;;;21.90;17.40;;;8.30;94.60;;;;;;5071689;28;21198;-50
2020/12/07 08:48:40;;;;;;;22.90;16.90;;;8.30;94.30;;;;;;5072192;28;20649;-52
2020/12/07 08:51:08;;;;;;;18.23;13.23;;;8.40;94.10;;;;;;5071684;28;20698;-51
2020/12/07 08:53:35;;;;;;;19.30;15.40;;;8.40;93.90;;;;;;5071384;28;20670;-50
2020/12/07 08:56:04;;;;;;;19.67;16.30;;;8.40;94.00;;;;;;5071606;28;20649;-50
2020/12/07 08:58:31;;;;;;;21.30;16.57;;;8.40;94.20;;;;;;5070564;28;20672;-52
2020/12/07 09:01:00;;;;;;;18.87;15.77;;;8.30;94.20;;;;;;5071205;28;20680;-51
2020/12/07 09:03:26;;;;;;;24.60;16.07;;;8.40;94.30;;;;;;5071186;28;20701;-52
2020/12/07 09:05:53;;;;;;;22.37;15.40;;;8.40;94.20;;;;;;5071237;28;20655;-51
2020/12/07 09:08:21;;;;;;;23.00;16.57;;;8.40;94.20;;;;;;5069040;28;20703;-51
2020/12/07 09:10:48;;;;;;;20.27;13.53;;;8.40;94.20;;;;;;5071443;28;21035;-51
2020/12/07 09:13:15;;;;;;;19.47;15.60;;;8.40;94.00;;;;;;5071163;28;20731;-51
2020/12/07 09:15:42;;;;;;;21.73;16.77;;;8.50;94.10;;;;;;5071153;28;20668;-50
2020/12/07 09:18:09;;;;;;;22.23;15.53;;;8.50;94.00;;;;;;5070993;28;21282;-51
2020/12/07 09:20:36;;;;;;;19.67;15.80;;;8.50;93.90;;;;;;5071319;28;21242;-51
2020/12/07 09:23:03;;;;;;;18.77;15.50;;;8.50;93.70;;;;;;5072836;28;20636;-50
2020/12/07 09:25:30;;;;;;;18.60;15.00;;;8.50;93.80;;;;;;5072694;28;20985;-52
2020/12/07 09:27:57;;;;;;;20.03;14.63;;;8.50;93.90;;;;;;5071547;28;20804;-51
2020/12/07 09:30:24;;;;;;;20.77;16.00;;;8.50;93.90;;;;;;5070998;28;20988;-51
2020/12/07 09:32:51;;;;;;;20.83;15.17;;;8.60;93.80;;;;;;5071634;28;20739;-53
2020/12/07 09:35:18;;;;;;;18.30;14.33;;;8.60;93.70;;;;;;5071182;28;20625;-50
2020/12/07 09:37:45;;;;;;;19.77;15.10;;;8.50;93.50;;;;;;5070492;28;20776;-50
2020/12/07 09:40:12;;;;;;;22.23;15.97;;;8.50;93.60;;;;;;5071326;28;20640;-52
2020/12/07 09:42:40;;;;;;;21.00;15.73;;;8.50;93.70;;;;;;5070898;28;21183;-52
2020/12/07 09:45:07;;;;;;;23.80;16.43;;;8.40;93.70;;;;;;5071041;28;21213;-52
2020/12/07 09:47:34;;;;;;;20.43;16.17;;;8.40;93.90;;;;;;5071262;28;20686;-50
2020/12/07 09:50:01;;;;;;;15.53;13.17;;;8.30;94.00;;;;;;5071524;28;20665;-50
2020/12/07 09:52:27;;;;;;;19.00;15.90;;;8.40;93.90;;;;;;5070994;28;21029;-50
2020/12/07 09:54:54;;;;;;;19.37;15.07;;;8.30;93.80;;;;;;5070853;28;20636;-50
2020/12/07 09:57:21;;;;;;;23.63;18.10;;;8.30;94.10;;;;;;5070841;28;20813;-51
2020/12/07 09:59:50;;;;;;;21.03;16.00;;;8.40;94.10;;;;;;5070299;28;20664;-51
2020/12/07 10:02:17;;;;;;;22.70;16.00;;;8.30;93.90;;;;;;5071137;28;20722;-53
2020/12/07 10:04:44;;;;;;;18.43;15.30;;;8.40;93.80;;;;;;5071681;28;20643;-51
2020/12/07 10:07:11;;;;;;;19.63;16.10;;;8.40;93.90;;;;;;5085202;28;20669;-51
2020/12/07 10:09:38;;;;;;;17.33;15.40;;;8.40;94.20;;;;;;5070335;28;21269;-51
2020/12/07 10:12:05;;;;;;;21.07;15.90;;;8.40;94.00;;;;;;5070303;28;21159;-51
2020/12/07 10:14:32;;;;;;;23.33;17.30;;;8.40;93.80;;;;;;5070392;28;20708;-50
2020/12/07 10:17:00;;;;;;;20.33;14.37;;;8.40;93.80;;;;;;5069996;28;20689;-51
2020/12/07 10:19:27;;;;;;;24.17;16.87;;;8.50;93.90;;;;;;5070029;28;20664;-51
2020/12/07 10:21:54;;;;;;;23.03;15.77;;;8.40;94.10;;;;;;5069945;28;20639;-50
2020/12/07 10:24:21;;;;;;;17.43;15.60;;;8.50;94.20;;;;;;5069934;28;20635;-51
2020/12/07 10:26:47;;;;;;;17.10;15.30;;;8.50;94.10;;;;;;5070399;28;20960;-50
2020/12/07 10:29:14;;;;;;;18.83;14.33;;;8.60;93.80;;;;;;5070124;28;20653;-51
2020/12/07 10:31:41;;;;;;;23.63;14.90;;;8.60;93.70;;;;;;5070365;28;20628;-50
2020/12/07 10:34:09;;;;;;;19.30;15.70;;;8.70;93.50;;;;;;5070059;28;20721;-49
2020/12/07 10:36:37;;;;;;;14.50;11.50;;;8.70;93.60;;;;;;5068860;28;21184;-50
2020/12/07 10:39:06;;;;;;;18.03;14.40;;;8.80;93.70;;;;;;5069081;28;21083;-50
2020/12/07 10:41:33;;;;;;;17.33;14.50;;;8.80;93.60;;;;;;5069661;28;20634;-49
2020/12/07 10:43:59;;;;;;;16.90;13.13;;;8.80;93.60;;;;;;5069519;28;20675;-50
2020/12/07 10:46:26;;;;;;;19.00;16.17;;;8.90;93.50;;;;;;5069695;28;20627;-51
2020/12/07 10:48:53;;;;;;;20.73;14.30;;;8.90;92.90;;;;;;5068807;28;20679;-50
2020/12/07 10:51:21;;;;;;;18.20;14.60;;;8.90;93.00;;;;;;5069371;28;20885;-51
2020/12/07 10:53:47;;;;;;;17.87;14.23;;;8.90;92.90;;;;;;5069505;28;20621;-52
2020/12/07 10:56:15;;;;;;;13.73;12.30;;;9.00;93.30;;;;;;5070114;28;20694;-50
2020/12/07 10:58:42;;;;;;;15.23;11.80;;;9.10;93.00;;;;;;5069376;28;20735;-50
2020/12/07 11:01:09;;;;;;;15.67;11.53;;;9.10;92.60;;;;;;5069510;28;20691;-50
2020/12/07 11:03:36;;;;;;;13.40;12.10;;;9.10;92.40;;;;;;5069374;28;20631;-50
2020/12/07 11:06:11;;;;;;;14.67;13.03;;;9.10;92.00;;;;;;5070374;28;20966;-51
2020/12/07 11:08:47;;;;;;;13.70;12.30;;;9.20;92.10;;;;;;5069002;28;20641;-50
2020/12/07 11:11:14;;;;;;;15.47;12.97;;;9.20;91.90;;;;;;5069312;28;20637;-54
2020/12/07 11:13:40;;;;;;;14.90;12.20;;;9.10;91.80;;;;;;5068535;28;20704;-51
2020/12/07 11:16:10;;;;;;;12.57;11.00;;;9.10;92.40;;;;;;5068897;28;20698;-49
2020/12/07 11:18:37;;;;;;;14.90;13.43;;;9.20;92.40;;;;;;5067811;28;20758;-49
2020/12/07 11:21:07;;;;;;;16.10;13.50;;;9.20;92.20;;;;;;5067853;28;20621;-50
2020/12/07 11:23:34;;;;;;;15.47;13.87;;;9.30;92.30;;;;;;5068775;28;20691;-50
2020/12/07 11:26:02;;;;;;;15.60;14.03;;;9.30;91.80;;;;;;5069119;28;20625;-50
2020/12/07 11:28:29;;;;;;;15.27;13.53;;;9.40;91.50;;;;;;5068193;28;20649;-50
2020/12/07 11:30:56;;;;;;;15.67;14.03;;;9.30;91.40;;;;;;5070361;28;20702;-50
2020/12/07 11:33:22;;;;;;;15.37;12.70;;;9.30;91.70;;;;;;5077749;28;20679;-49
2020/12/07 11:35:49;;;;;;;13.67;11.57;;;9.40;91.70;;;;;;5068311;28;20671;-50
2020/12/07 11:38:18;;;;;;;13.73;12.30;;;9.30;91.40;;;;;;5068051;28;20726;-49
2020/12/07 11:40:59;;;;;;;15.27;12.70;;;9.30;91.60;;;;;;5069241;28;20716;-49
2020/12/07 11:43:38;;;;;;;13.00;11.70;;;9.30;91.60;;;;;;5068254;28;20650;-50
2020/12/07 11:46:05;;;;;;;15.97;14.30;;;9.20;91.60;;;;;;5068446;28;21214;-50
2020/12/07 11:48:32;;;;;;;14.43;12.83;;;9.20;92.00;;;;;;5067553;28;20657;-50
2020/12/07 11:50:59;;;;;;;13.97;10.27;;;9.20;91.70;;;;;;5034977;28;20684;-50
2020/12/07 11:53:25;;;;;;;12.40;11.27;;;9.30;91.70;;;;;;5048820;28;20626;-50
2020/12/07 11:55:52;;;;;;;22.57;13.23;;;9.30;91.70;;;;;;5048492;28;21139;-50
2020/12/07 11:58:19;;;;;;;14.73;13.20;;;9.30;91.70;;;;;;5049284;28;20739;-51
2020/12/07 12:00:47;;;;;;;15.07;13.47;;;9.30;91.70;;;;;;5048907;28;21031;-50
2020/12/07 12:03:14;;;;;;;16.23;14.50;;;9.30;91.80;;;;;;5048820;28;20691;-51
2020/12/07 12:05:40;;;;;;;16.87;14.07;;;9.40;91.80;;;;;;5048841;28;20688;-51
2020/12/07 12:08:07;;;;;;;19.67;15.30;;;9.40;91.90;;;;;;5061503;28;20706;-50
2020/12/07 12:10:34;;;;;;;13.70;12.30;;;9.50;91.70;;;;;;5068468;28;21062;-52
2020/12/07 12:13:01;;;;;;;15.93;12.70;;;9.50;91.60;;;;;;5069006;28;21041;-53
2020/12/07 12:15:28;;;;;;;16.83;14.37;;;9.50;91.40;;;;;;5068956;28;20633;-49
2020/12/07 12:17:55;;;;;;;15.03;12.63;;;9.60;91.50;;;;;;5068312;28;20669;-52
2020/12/07 12:20:22;;;;;;;17.37;12.83;;;9.50;91.40;;;;;;5068838;28;21177;-51
2020/12/07 12:22:49;;;;;;;14.00;12.60;;;9.50;91.60;;;;;;5068514;28;20670;-50
2020/12/07 12:25:16;;;;;;;15.93;14.23;;;9.60;91.40;;;;;;5068740;28;20624;-51
2020/12/07 12:27:43;;;;;;;19.27;14.83;;;9.50;91.10;;;;;;5068326;28;20629;-51
2020/12/07 12:30:10;;;;;;;18.53;16.53;;;9.50;91.00;;;;;;5069151;28;20624;-51
2020/12/07 12:32:36;;;;;;;19.80;16.40;;;9.50;91.00;;;;;;5068485;28;20642;-51
2020/12/07 12:35:04;;;;;;;17.50;14.90;;;9.50;91.30;;;;;;5068901;28;20668;-52
2020/12/07 12:37:31;;;;;;;16.70;14.90;;;9.50;91.50;;;;;;5068124;28;20709;-52
2020/12/07 12:39:58;;;;;;;18.70;16.70;;;9.60;91.20;;;;;;5069654;28;21114;-50
2020/12/07 12:42:25;;;;;;;18.33;16.40;;;9.70;91.20;;;;;;5072153;28;20633;-53
2020/12/07 12:44:52;;;;;;;18.47;16.50;;;9.80;91.40;;;;;;5072678;28;20640;-50
2020/12/07 12:47:19;;;;;;;20.50;15.67;;;9.90;91.10;;;;;;5073682;28;20654;-49
2020/12/07 12:49:45;;;;;;;20.47;18.47;;;9.80;90.80;;;;;;5073170;28;20667;-51
2020/12/07 12:52:13;;;;;;;21.10;18.47;;;9.70;90.70;;;;;;5072255;28;20678;-50
2020/12/07 12:54:40;;;;;;;19.27;16.43;;;9.70;90.70;;;;;;5071930;28;21238;-51
2020/12/07 12:57:07;;;;;;;18.10;12.60;;;9.70;90.70;;;;;;5072101;28;20628;-52
2020/12/07 12:59:34;;;;;;;18.70;15.60;;;9.60;90.50;;;;;;5072269;28;21251;-51
2020/12/07 13:02:00;;;;;;;17.67;15.77;;;9.60;90.50;;;;;;5071615;28;21083;-52
2020/12/07 13:04:27;;;;;;;16.83;15.13;;;9.50;90.60;;;;;;5072091;28;20632;-51